sensor_id;sensor_type;location;lat;lon;timestamp;pressure;altitude;pressure_sealevel;temperature;humidity
8059;BME280;4072;42.668;23.396;2023-04-09T00:01:27;95297.63;;;7.14;100.00
8059;BME280;4072;42.668;23.396;2023-04-09T00:03:56;95299.84;;;7.19;100.00
8059;BME280;4072;42.668;23.396;2023-04-09T00:06:26;95284.53;;;7.16;100.00
8059;BME280;4072;42.668;23.396;2023-04-09T00:08:54;95295.75;;;7.31;100.00
8059;BME280;4072;42.668;23.396;2023-04-09T00:11:23;95291.94;;;7.28;100.00
8059;BME280;4072;42.668;23.396;2023-04-09T00:13:51;95300.25;;;7.18;100.00
8059;BME280;4072;42.668;23.396;2023-04-09T00:16:19;95303.09;;;7.11;100.00
8059;BME280;4072;42.668;23.396;2023-04-09T00:18:49;95309.00;;;7.06;100.00
8059;BME280;4072;42.668;23.396;2023-04-09T00:21:18;95309.81;;;7.03;100.00
8059;BME280;4072;42.668;23.396;2023-04-09T00:23:46;95307.88;;;7.03;100.00
8059;BME280;4072;42.668;23.396;2023-04-09T00:26:14;95307.13;;;7.03;100.00
8059;BME280;4072;42.668;23.396;2023-04-09T00:28:42;95305.59;;;7.02;100.00
8059;BME280;4072;42.668;23.396;2023-04-09T00:31:10;95319.41;;;7.04;100.00
8059;BME280;4072;42.668;23.396;2023-04-09T00:33:39;95308.63;;;7.04;100.00
8059;BME280;4072;42.668;23.396;2023-04-09T00:36:09;95301.41;;;7.01;100.00
8059;BME280;4072;42.668;23.396;2023-04-09T00:38:37;95313.19;;;7.07;100.00
8059;BME280;4072;42.668;23.396;2023-04-09T00:41:06;95313.78;;;7.14;100.00
8059;BME280;4072;42.668;23.396;2023-04-09T00:43:34;95313.34;;;7.16;100.00
8059;BME280;4072;42.668;23.396;2023-04-09T00:46:03;95310.81;;;7.09;100.00
8059;BME280;4072;42.668;23.396;2023-04-09T00:48:31;95309.41;;;7.04;100.00
8059;BME280;4072;42.668;23.396;2023-04-09T00:50:59;95304.09;;;7.01;100.00
8059;BME280;4072;42.668;23.396;2023-04-09T00:53:29;95264.88;;;6.68;100.00
8059;BME280;4072;42.668;23.396;2023-04-09T00:55:57;95294.72;;;6.89;100.00
8059;BME280;4072;42.668;23.396;2023-04-09T00:58:26;95308.13;;;6.93;100.00
8059;BME280;4072;42.668;23.396;2023-04-09T01:00:54;95312.00;;;6.92;100.00
8059;BME280;4072;42.668;23.396;2023-04-09T01:03:22;95296.69;;;6.89;100.00
8059;BME280;4072;42.668;23.396;2023-04-09T01:05:59;95304.09;;;7.01;100.00
8059;BME280;4072;42.668;23.396;2023-04-09T01:08:37;95308.78;;;6.97;100.00
8059;BME280;4072;42.668;23.396;2023-04-09T01:11:15;95308.63;;;7.04;100.00
8059;BME280;4072;42.668;23.396;2023-04-09T01:13:54;95307.41;;;7.24;100.00
8059;BME280;4072;42.668;23.396;2023-04-09T01:16:28;95309.63;;;7.29;100.00
8059;BME280;4072;42.668;23.396;2023-04-09T01:19:00;95314.47;;;7.34;100.00
8059;BME280;4072;42.668;23.396;2023-04-09T01:21:31;95317.59;;;7.33;100.00
8059;BME280;4072;42.668;23.396;2023-04-09T01:24:17;95319.59;;;7.29;100.00
8059;BME280;4072;42.668;23.396;2023-04-09T01:26:54;95319.09;;;7.34;100.00
8059;BME280;4072;42.668;23.396;2023-04-09T01:29:29;95308.84;;;7.29;100.00
8059;BME280;4072;42.668;23.396;2023-04-09T01:31:59;95308.16;;;7.25;100.00
8059;BME280;4072;42.668;23.396;2023-04-09T01:34:29;95316.06;;;7.16;100.00
8059;BME280;4072;42.668;23.396;2023-04-09T01:37:01;95313.03;;;7.30;100.00
8059;BME280;4072;42.668;23.396;2023-04-09T01:39:30;95323.66;;;7.37;100.00
8059;BME280;4072;42.668;23.396;2023-04-09T01:42:00;95320.28;;;7.33;100.00
8059;BME280;4072;42.668;23.396;2023-04-09T01:44:31;95313.72;;;7.34;100.00
8059;BME280;4072;42.668;23.396;2023-04-09T01:47:00;95307.34;;;7.28;100.00
8059;BME280;4072;42.668;23.396;2023-04-09T01:49:29;95321.22;;;7.26;100.00
8059;BME280;4072;42.668;23.396;2023-04-09T01:51:58;95317.59;;;7.17;100.00
8059;BME280;4072;42.668;23.396;2023-04-09T01:54:28;95309.97;;;6.96;100.00
8059;BME280;4072;42.668;23.396;2023-04-09T01:56:57;95313.09;;;7.10;100.00
8059;BME280;4072;42.668;23.396;2023-04-09T01:59:25;95314.22;;;6.93;100.00
8059;BME280;4072;42.668;23.396;2023-04-09T02:01:58;95319.03;;;6.86;100.00
8059;BME280;4072;42.668;23.396;2023-04-09T02:04:32;95321.34;;;6.84;100.00
8059;BME280;4072;42.668;23.396;2023-04-09T02:07:05;95312.19;;;6.81;100.00
8059;BME280;4072;42.668;23.396;2023-04-09T02:09:36;95314.69;;;6.72;100.00
8059;BME280;4072;42.668;23.396;2023-04-09T02:12:10;95316.22;;;6.73;100.00
8059;BME280;4072;42.668;23.396;2023-04-09T02:14:40;95323.91;;;6.71;100.00
8059;BME280;4072;42.668;23.396;2023-04-09T02:17:10;95283.47;;;6.59;100.00
8059;BME280;4072;42.668;23.396;2023-04-09T02:19:39;95308.63;;;6.68;100.00
8059;BME280;4072;42.668;23.396;2023-04-09T02:22:08;95314.75;;;6.69;100.00
8059;BME280;4072;42.668;23.396;2023-04-09T02:24:36;95305.22;;;6.84;100.00
8059;BME280;4072;42.668;23.396;2023-04-09T02:27:05;95311.88;;;6.79;100.00
8059;BME280;4072;42.668;23.396;2023-04-09T02:29:33;95305.13;;;6.52;100.00
8059;BME280;4072;42.668;23.396;2023-04-09T02:32:03;95308.16;;;6.54;100.00
8059;BME280;4072;42.668;23.396;2023-04-09T02:34:36;95319.03;;;6.47;100.00
8059;BME280;4072;42.668;23.396;2023-04-09T02:37:04;95302.97;;;6.43;100.00
8059;BME280;4072;42.668;23.396;2023-04-09T02:39:33;95322.59;;;6.60;100.00
8059;BME280;4072;42.668;23.396;2023-04-09T02:42:00;95314.72;;;6.53;100.00
8059;BME280;4072;42.668;23.396;2023-04-09T02:44:29;95312.34;;;6.55;100.00
8059;BME280;4072;42.668;23.396;2023-04-09T02:46:57;95308.97;;;6.51;100.00
8059;BME280;4072;42.668;23.396;2023-04-09T02:49:26;95315.53;;;6.50;100.00
8059;BME280;4072;42.668;23.396;2023-04-09T02:51:55;95303.53;;;6.54;100.00
8059;BME280;4072;42.668;23.396;2023-04-09T02:54:23;95312.56;;;6.64;100.00
8059;BME280;4072;42.668;23.396;2023-04-09T02:56:51;95300.69;;;6.42;100.00
8059;BME280;4072;42.668;23.396;2023-04-09T02:59:20;95307.88;;;6.48;100.00
8059;BME280;4072;42.668;23.396;2023-04-09T03:01:48;95297.41;;;6.34;100.00
8059;BME280;4072;42.668;23.396;2023-04-09T03:04:16;95291.47;;;6.23;100.00
8059;BME280;4072;42.668;23.396;2023-04-09T03:06:44;95294.22;;;6.20;100.00
8059;BME280;4072;42.668;23.396;2023-04-09T03:09:14;95306.69;;;6.10;100.00
8059;BME280;4072;42.668;23.396;2023-04-09T03:11:42;95285.75;;;6.01;100.00
8059;BME280;4072;42.668;23.396;2023-04-09T03:14:10;95310.47;;;6.13;100.00
8059;BME280;4072;42.668;23.396;2023-04-09T03:16:38;95303.66;;;6.28;100.00
8059;BME280;4072;42.668;23.396;2023-04-09T03:19:06;95314.34;;;6.12;100.00
8059;BME280;4072;42.668;23.396;2023-04-09T03:21:36;95319.28;;;6.13;100.00
8059;BME280;4072;42.668;23.396;2023-04-09T03:24:05;95317.34;;;6.13;100.00
8059;BME280;4072;42.668;23.396;2023-04-09T03:26:34;95310.69;;;6.22;100.00
8059;BME280;4072;42.668;23.396;2023-04-09T03:29:04;95309.28;;;6.13;100.00
8059;BME280;4072;42.668;23.396;2023-04-09T03:31:33;95316.66;;;6.09;100.00
8059;BME280;4072;42.668;23.396;2023-04-09T03:34:01;95321.22;;;6.13;100.00
8059;BME280;4072;42.668;23.396;2023-04-09T03:36:29;95321.78;;;6.24;100.00
8059;BME280;4072;42.668;23.396;2023-04-09T03:38:58;95313.72;;;6.43;100.00
8059;BME280;4072;42.668;23.396;2023-04-09T03:41:27;95315.44;;;6.34;100.00
8059;BME280;4072;42.668;23.396;2023-04-09T03:43:57;95330.25;;;6.42;100.00
8059;BME280;4072;42.668;23.396;2023-04-09T03:46:25;95321.19;;;6.36;100.00
8059;BME280;4072;42.668;23.396;2023-04-09T03:48:53;95315.13;;;6.32;100.00
8059;BME280;4072;42.668;23.396;2023-04-09T03:51:21;95317.66;;;6.19;100.00
8059;BME280;4072;42.668;23.396;2023-04-09T03:53:50;95320.97;;;6.27;100.00
8059;BME280;4072;42.668;23.396;2023-04-09T03:56:18;95320.41;;;6.16;100.00
8059;BME280;4072;42.668;23.396;2023-04-09T03:58:46;95325.41;;;6.13;100.00
8059;BME280;4072;42.668;23.396;2023-04-09T04:01:17;95340.69;;;6.40;100.00
8059;BME280;4072;42.668;23.396;2023-04-09T04:03:45;95322.41;;;6.51;100.00
8059;BME280;4072;42.668;23.396;2023-04-09T04:06:15;95317.59;;;6.42;100.00
8059;BME280;4072;42.668;23.396;2023-04-09T04:08:43;95339.84;;;6.43;100.00
8059;BME280;4072;42.668;23.396;2023-04-09T04:11:12;95330.34;;;6.58;100.00
8059;BME280;4072;42.668;23.396;2023-04-09T04:13:40;95333.34;;;6.60;100.00
8059;BME280;4072;42.668;23.396;2023-04-09T04:16:09;95326.88;;;6.77;100.00
8059;BME280;4072;42.668;23.396;2023-04-09T04:18:38;95318.25;;;6.85;100.00
8059;BME280;4072;42.668;23.396;2023-04-09T04:21:11;95278.91;;;6.56;100.00
8059;BME280;4072;42.668;23.396;2023-04-09T04:23:40;95328.81;;;6.96;100.00
8059;BME280;4072;42.668;23.396;2023-04-09T04:26:08;95318.97;;;7.05;100.00
8059;BME280;4072;42.668;23.396;2023-04-09T04:28:38;95333.75;;;6.97;100.00
8059;BME280;4072;42.668;23.396;2023-04-09T04:31:07;95324.94;;;6.97;100.00
8059;BME280;4072;42.668;23.396;2023-04-09T04:33:39;95330.69;;;7.15;100.00
8059;BME280;4072;42.668;23.396;2023-04-09T04:36:10;95315.72;;;7.14;100.00
8059;BME280;4072;42.668;23.396;2023-04-09T04:38:39;95335.75;;;7.29;100.00
8059;BME280;4072;42.668;23.396;2023-04-09T04:41:09;95324.94;;;7.32;100.00
8059;BME280;4072;42.668;23.396;2023-04-09T04:43:37;95324.63;;;7.27;100.00
8059;BME280;4072;42.668;23.396;2023-04-09T04:46:07;95328.03;;;7.31;100.00
8059;BME280;4072;42.668;23.396;2023-04-09T04:48:35;95327.59;;;7.16;100.00
8059;BME280;4072;42.668;23.396;2023-04-09T04:51:08;95325.56;;;7.20;100.00
8059;BME280;4072;42.668;23.396;2023-04-09T04:53:36;95330.53;;;7.22;100.00
8059;BME280;4072;42.668;23.396;2023-04-09T04:56:05;95336.25;;;7.24;100.00
8059;BME280;4072;42.668;23.396;2023-04-09T04:58:33;95334.75;;;7.39;100.00
8059;BME280;4072;42.668;23.396;2023-04-09T05:01:01;95339.53;;;7.31;100.00
8059;BME280;4072;42.668;23.396;2023-04-09T05:03:29;95342.16;;;7.35;100.00
8059;BME280;4072;42.668;23.396;2023-04-09T05:05:57;95316.50;;;7.30;100.00
8059;BME280;4072;42.668;23.396;2023-04-09T05:08:27;95331.56;;;7.44;100.00
8059;BME280;4072;42.668;23.396;2023-04-09T05:10:56;95338.81;;;7.63;100.00
8059;BME280;4072;42.668;23.396;2023-04-09T05:13:24;95330.41;;;7.61;100.00
8059;BME280;4072;42.668;23.396;2023-04-09T05:15:52;95329.41;;;7.71;100.00
8059;BME280;4072;42.668;23.396;2023-04-09T05:18:20;95336.94;;;7.76;100.00
8059;BME280;4072;42.668;23.396;2023-04-09T05:20:48;95336.38;;;7.68;100.00
8059;BME280;4072;42.668;23.396;2023-04-09T05:23:16;95343.28;;;7.69;100.00
8059;BME280;4072;42.668;23.396;2023-04-09T05:25:47;95343.38;;;7.66;100.00
8059;BME280;4072;42.668;23.396;2023-04-09T05:28:15;95338.66;;;7.70;100.00
8059;BME280;4072;42.668;23.396;2023-04-09T05:30:45;95335.78;;;7.61;100.00
8059;BME280;4072;42.668;23.396;2023-04-09T05:33:15;95335.78;;;7.61;100.00
8059;BME280;4072;42.668;23.396;2023-04-09T05:35:43;95346.38;;;7.68;100.00
8059;BME280;4072;42.668;23.396;2023-04-09T05:38:11;95336.44;;;7.65;100.00
8059;BME280;4072;42.668;23.396;2023-04-09T05:40:40;95323.19;;;7.74;100.00
8059;BME280;4072;42.668;23.396;2023-04-09T05:43:12;95339.66;;;7.76;100.00
8059;BME280;4072;42.668;23.396;2023-04-09T05:45:40;95331.50;;;7.79;100.00
8059;BME280;4072;42.668;23.396;2023-04-09T05:48:08;95335.38;;;7.78;100.00
8059;BME280;4072;42.668;23.396;2023-04-09T05:50:36;95280.25;;;7.51;100.00
8059;BME280;4072;42.668;23.396;2023-04-09T05:53:19;95338.16;;;7.91;100.00
8059;BME280;4072;42.668;23.396;2023-04-09T05:55:47;95317.63;;;7.81;100.00
8059;BME280;4072;42.668;23.396;2023-04-09T05:58:18;95336.38;;;8.00;100.00
8059;BME280;4072;42.668;23.396;2023-04-09T06:00:47;95326.84;;;8.12;100.00
8059;BME280;4072;42.668;23.396;2023-04-09T06:03:17;95335.84;;;8.21;100.00
8059;BME280;4072;42.668;23.396;2023-04-09T06:05:46;95335.56;;;8.32;100.00
8059;BME280;4072;42.668;23.396;2023-04-09T06:08:14;95337.34;;;8.38;100.00
8059;BME280;4072;42.668;23.396;2023-04-09T06:10:42;95330.84;;;8.36;100.00
8059;BME280;4072;42.668;23.396;2023-04-09T06:13:10;95327.59;;;8.28;100.00
8059;BME280;4072;42.668;23.396;2023-04-09T06:15:40;95339.94;;;8.42;100.00
8059;BME280;4072;42.668;23.396;2023-04-09T06:18:09;95332.50;;;8.46;100.00
8059;BME280;4072;42.668;23.396;2023-04-09T06:20:37;95336.50;;;8.54;100.00
8059;BME280;4072;42.668;23.396;2023-04-09T06:23:06;95320.22;;;8.45;100.00
8059;BME280;4072;42.668;23.396;2023-04-09T06:25:34;95333.03;;;8.41;100.00
8059;BME280;4072;42.668;23.396;2023-04-09T06:28:02;95331.03;;;8.29;100.00
8059;BME280;4072;42.668;23.396;2023-04-09T06:30:31;95339.44;;;8.31;100.00
8059;BME280;4072;42.668;23.396;2023-04-09T06:33:00;95338.44;;;8.41;100.00
8059;BME280;4072;42.668;23.396;2023-04-09T06:35:29;95288.44;;;8.08;100.00
8059;BME280;4072;42.668;23.396;2023-04-09T06:37:58;95332.88;;;8.32;100.00
8059;BME280;4072;42.668;23.396;2023-04-09T06:40:26;95339.94;;;8.42;100.00
8059;BME280;4072;42.668;23.396;2023-04-09T06:42:54;95345.59;;;8.60;100.00
8059;BME280;4072;42.668;23.396;2023-04-09T06:45:23;95354.69;;;8.66;100.00
8059;BME280;4072;42.668;23.396;2023-04-09T06:47:51;95344.56;;;8.70;100.00
8059;BME280;4072;42.668;23.396;2023-04-09T06:50:21;95345.22;;;8.74;100.00
8059;BME280;4072;42.668;23.396;2023-04-09T06:52:50;95343.00;;;8.97;100.00
8059;BME280;4072;42.668;23.396;2023-04-09T06:55:18;95347.47;;;9.04;100.00
8059;BME280;4072;42.668;23.396;2023-04-09T06:57:46;95342.72;;;9.08;100.00
8059;BME280;4072;42.668;23.396;2023-04-09T07:00:14;95352.06;;;8.91;100.00
8059;BME280;4072;42.668;23.396;2023-04-09T07:02:43;95350.34;;;8.97;100.00
8059;BME280;4072;42.668;23.396;2023-04-09T07:05:11;95350.06;;;9.20;100.00
8059;BME280;4072;42.668;23.396;2023-04-09T07:07:41;95339.25;;;9.20;100.00
8059;BME280;4072;42.668;23.396;2023-04-09T07:10:09;95348.13;;;9.21;100.00
8059;BME280;4072;42.668;23.396;2023-04-09T07:12:46;95352.16;;;9.00;100.00
8059;BME280;4072;42.668;23.396;2023-04-09T07:15:14;95348.56;;;9.19;100.00
8059;BME280;4072;42.668;23.396;2023-04-09T07:17:43;95359.47;;;9.41;100.00
8059;BME280;4072;42.668;23.396;2023-04-09T07:20:11;95205.66;;;8.24;100.00
8059;BME280;4072;42.668;23.396;2023-04-09T07:22:41;95347.91;;;9.15;100.00
8059;BME280;4072;42.668;23.396;2023-04-09T07:25:09;95345.50;;;9.17;100.00
8059;BME280;4072;42.668;23.396;2023-04-09T07:27:40;95350.59;;;9.15;100.00
8059;BME280;4072;42.668;23.396;2023-04-09T07:30:09;95362.69;;;9.23;100.00
8059;BME280;4072;42.668;23.396;2023-04-09T07:32:37;95359.25;;;9.60;100.00
8059;BME280;4072;42.668;23.396;2023-04-09T07:35:07;95355.91;;;9.56;100.00
8059;BME280;4072;42.668;23.396;2023-04-09T07:37:37;95356.13;;;9.49;100.00
8059;BME280;4072;42.668;23.396;2023-04-09T07:40:08;95361.72;;;9.67;100.00
8059;BME280;4072;42.668;23.396;2023-04-09T07:42:36;95362.63;;;9.64;100.00
8059;BME280;4072;42.668;23.396;2023-04-09T07:45:07;95357.88;;;9.56;100.00
8059;BME280;4072;42.668;23.396;2023-04-09T07:47:35;95365.31;;;9.64;100.00
8059;BME280;4072;42.668;23.396;2023-04-09T07:50:04;95335.69;;;9.11;100.00
8059;BME280;4072;42.668;23.396;2023-04-09T07:52:33;95368.22;;;9.32;100.00
8059;BME280;4072;42.668;23.396;2023-04-09T07:55:01;95365.47;;;9.20;100.00
8059;BME280;4072;42.668;23.396;2023-04-09T07:57:32;95377.06;;;9.20;100.00
8059;BME280;4072;42.668;23.396;2023-04-09T08:00:00;95358.59;;;9.19;100.00
8059;BME280;4072;42.668;23.396;2023-04-09T08:02:29;95376.59;;;9.09;100.00
8059;BME280;4072;42.668;23.396;2023-04-09T08:04:58;95383.69;;;9.03;100.00
8059;BME280;4072;42.668;23.396;2023-04-09T08:07:26;95381.53;;;8.98;100.00
8059;BME280;4072;42.668;23.396;2023-04-09T08:09:54;95387.66;;;8.86;100.00
8059;BME280;4072;42.668;23.396;2023-04-09T08:12:22;95386.63;;;9.08;100.00
8059;BME280;4072;42.668;23.396;2023-04-09T08:14:51;95381.38;;;9.30;100.00
8059;BME280;4072;42.668;23.396;2023-04-09T08:17:19;95389.81;;;9.32;100.00
8059;BME280;4072;42.668;23.396;2023-04-09T08:19:47;95401.28;;;9.61;100.00
8059;BME280;4072;42.668;23.396;2023-04-09T08:22:16;95392.84;;;9.59;100.00
8059;BME280;4072;42.668;23.396;2023-04-09T08:24:50;95386.69;;;9.46;100.00
8059;BME280;4072;42.668;23.396;2023-04-09T08:27:20;95390.28;;;9.43;100.00
8059;BME280;4072;42.668;23.396;2023-04-09T08:29:53;95389.63;;;9.64;100.00
8059;BME280;4072;42.668;23.396;2023-04-09T08:32:21;95380.97;;;9.57;100.00
8059;BME280;4072;42.668;23.396;2023-04-09T08:34:49;95399.44;;;9.96;100.00
8059;BME280;4072;42.668;23.396;2023-04-09T08:37:19;95392.00;;;10.12;100.00
8059;BME280;4072;42.668;23.396;2023-04-09T08:39:48;95391.53;;;10.26;100.00
8059;BME280;4072;42.668;23.396;2023-04-09T08:42:17;95384.00;;;9.96;100.00
8059;BME280;4072;42.668;23.396;2023-04-09T08:44:46;95386.59;;;10.12;100.00
8059;BME280;4072;42.668;23.396;2023-04-09T08:47:17;95389.84;;;10.07;100.00
8059;BME280;4072;42.668;23.396;2023-04-09T08:49:45;95377.94;;;9.92;100.00
8059;BME280;4072;42.668;23.396;2023-04-09T08:52:16;95384.38;;;10.32;100.00
8059;BME280;4072;42.668;23.396;2023-04-09T08:54:49;95385.59;;;10.06;100.00
8059;BME280;4072;42.668;23.396;2023-04-09T08:57:17;95380.97;;;9.94;100.00
8059;BME280;4072;42.668;23.396;2023-04-09T08:59:46;95383.66;;;9.94;100.00
8059;BME280;4072;42.668;23.396;2023-04-09T09:02:15;95378.47;;;10.12;100.00
8059;BME280;4072;42.668;23.396;2023-04-09T09:04:44;95378.81;;;9.89;100.00
8059;BME280;4072;42.668;23.396;2023-04-09T09:07:13;95367.13;;;10.17;100.00
8059;BME280;4072;42.668;23.396;2023-04-09T09:09:52;95364.97;;;9.87;100.00
8059;BME280;4072;42.668;23.396;2023-04-09T09:12:32;95368.53;;;9.84;100.00
8059;BME280;4072;42.668;23.396;2023-04-09T09:15:01;95362.72;;;9.73;100.00
8059;BME280;4072;42.668;23.396;2023-04-09T09:17:31;95366.16;;;9.86;100.00
8059;BME280;4072;42.668;23.396;2023-04-09T09:20:17;95362.75;;;10.32;100.00
8059;BME280;4072;42.668;23.396;2023-04-09T09:22:50;95359.38;;;10.62;100.00
8059;BME280;4072;42.668;23.396;2023-04-09T09:25:21;95306.00;;;10.20;100.00
8059;BME280;4072;42.668;23.396;2023-04-09T09:27:52;95353.47;;;10.76;100.00
8059;BME280;4072;42.668;23.396;2023-04-09T09:30:22;95353.47;;;11.19;100.00
8059;BME280;4072;42.668;23.396;2023-04-09T09:33:04;95344.06;;;11.63;100.00
8059;BME280;4072;42.668;23.396;2023-04-09T09:35:48;95348.72;;;12.03;100.00
8059;BME280;4072;42.668;23.396;2023-04-09T09:38:17;95342.69;;;11.99;100.00
8059;BME280;4072;42.668;23.396;2023-04-09T09:40:46;95332.09;;;11.82;100.00
8059;BME280;4072;42.668;23.396;2023-04-09T09:43:14;95333.28;;;11.81;100.00
8059;BME280;4072;42.668;23.396;2023-04-09T09:45:43;95327.38;;;11.65;100.00
8059;BME280;4072;42.668;23.396;2023-04-09T09:48:16;95318.25;;;11.19;100.00
8059;BME280;4072;42.668;23.396;2023-04-09T09:50:47;95329.66;;;11.36;100.00
8059;BME280;4072;42.668;23.396;2023-04-09T09:53:16;95324.75;;;12.01;100.00
8059;BME280;4072;42.668;23.396;2023-04-09T09:55:51;95324.38;;;12.30;100.00
8059;BME280;4072;42.668;23.396;2023-04-09T09:58:23;95312.16;;;12.43;98.90
8059;BME280;4072;42.668;23.396;2023-04-09T10:00:54;95322.97;;;12.07;96.04
8059;BME280;4072;42.668;23.396;2023-04-09T10:03:26;95306.47;;;11.65;95.51
8059;BME280;4072;42.668;23.396;2023-04-09T10:05:57;95320.41;;;12.13;94.82
8059;BME280;4072;42.668;23.396;2023-04-09T10:08:27;95325.25;;;12.27;93.16
8059;BME280;4072;42.668;23.396;2023-04-09T10:10:56;95309.88;;;12.42;91.46
8059;BME280;4072;42.668;23.396;2023-04-09T10:13:28;95300.53;;;12.61;88.95
8059;BME280;4072;42.668;23.396;2023-04-09T10:15:58;95285.75;;;12.53;89.43
8059;BME280;4072;42.668;23.396;2023-04-09T10:18:28;95296.00;;;12.76;84.49
8059;BME280;4072;42.668;23.396;2023-04-09T10:21:05;95293.91;;;12.62;82.59
8059;BME280;4072;42.668;23.396;2023-04-09T10:23:38;95283.97;;;12.05;86.77
8059;BME280;4072;42.668;23.396;2023-04-09T10:26:07;95283.53;;;12.42;88.29
8059;BME280;4072;42.668;23.396;2023-04-09T10:28:36;95295.09;;;12.79;84.78
8059;BME280;4072;42.668;23.396;2023-04-09T10:31:05;95292.22;;;13.42;77.53
8059;BME280;4072;42.668;23.396;2023-04-09T10:33:37;95299.63;;;13.74;74.91
8059;BME280;4072;42.668;23.396;2023-04-09T10:36:10;95284.31;;;14.09;72.08
8059;BME280;4072;42.668;23.396;2023-04-09T10:38:40;95285.59;;;14.46;69.13
8059;BME280;4072;42.668;23.396;2023-04-09T10:41:15;95246.47;;;14.20;65.89
8059;BME280;4072;42.668;23.396;2023-04-09T10:43:49;95238.66;;;14.13;65.84
8059;BME280;4072;42.668;23.396;2023-04-09T10:46:28;95223.19;;;14.19;64.71
8059;BME280;4072;42.668;23.396;2023-04-09T10:49:13;95282.06;;;14.69;63.25
8059;BME280;4072;42.668;23.396;2023-04-09T10:51:47;95273.25;;;14.74;62.81
8059;BME280;4072;42.668;23.396;2023-04-09T10:54:40;95267.13;;;14.50;63.57
8059;BME280;4072;42.668;23.396;2023-04-09T10:57:17;95270.09;;;14.14;65.05
8059;BME280;4072;42.668;23.396;2023-04-09T10:59:47;95273.19;;;14.30;61.31
8059;BME280;4072;42.668;23.396;2023-04-09T11:02:44;95268.66;;;14.27;63.49
8059;BME280;4072;42.668;23.396;2023-04-09T11:05:29;95263.13;;;14.13;64.18
8059;BME280;4072;42.668;23.396;2023-04-09T11:08:04;95264.09;;;14.10;65.20
8059;BME280;4072;42.668;23.396;2023-04-09T11:10:33;95259.22;;;14.14;64.24
8059;BME280;4072;42.668;23.396;2023-04-09T11:13:02;95265.69;;;13.93;63.56
8059;BME280;4072;42.668;23.396;2023-04-09T11:15:31;95257.34;;;13.73;65.02
8059;BME280;4072;42.668;23.396;2023-04-09T11:17:59;95254.94;;;13.75;67.59
8059;BME280;4072;42.668;23.396;2023-04-09T11:20:33;95261.88;;;13.76;64.39
8059;BME280;4072;42.668;23.396;2023-04-09T11:23:01;95246.59;;;13.55;64.46
8059;BME280;4072;42.668;23.396;2023-04-09T11:25:31;95249.94;;;13.50;64.36
8059;BME280;4072;42.668;23.396;2023-04-09T11:28:02;95249.00;;;13.53;63.55
8059;BME280;4072;42.668;23.396;2023-04-09T11:30:30;95251.78;;;13.44;64.52
8059;BME280;4072;42.668;23.396;2023-04-09T11:33:00;95207.16;;;12.76;66.20
8059;BME280;4072;42.668;23.396;2023-04-09T11:35:33;95220.84;;;12.91;65.05
8059;BME280;4072;42.668;23.396;2023-04-09T11:38:06;95236.84;;;12.89;57.57
8059;BME280;4072;42.668;23.396;2023-04-09T11:40:35;95166.09;;;12.42;57.39
8059;BME280;4072;42.668;23.396;2023-04-09T11:43:09;95240.09;;;13.20;58.11
8059;BME280;4072;42.668;23.396;2023-04-09T11:45:37;95224.19;;;13.04;54.10
8059;BME280;4072;42.668;23.396;2023-04-09T11:48:06;95238.88;;;13.21;53.77
8059;BME280;4072;42.668;23.396;2023-04-09T11:50:35;95224.69;;;13.26;53.66
8059;BME280;4072;42.668;23.396;2023-04-09T11:53:15;95224.44;;;13.15;53.31
8059;BME280;4072;42.668;23.396;2023-04-09T11:55:46;95220.16;;;13.23;52.96
8059;BME280;4072;42.668;23.396;2023-04-09T11:58:14;95219.91;;;13.12;53.64
8059;BME280;4072;42.668;23.396;2023-04-09T12:00:42;95203.06;;;12.90;52.40
8059;BME280;4072;42.668;23.396;2023-04-09T12:03:11;95221.41;;;13.13;53.38
8059;BME280;4072;42.668;23.396;2023-04-09T12:05:45;95206.63;;;13.14;51.72
8059;BME280;4072;42.668;23.396;2023-04-09T12:08:22;95216.88;;;13.10;51.85
8059;BME280;4072;42.668;23.396;2023-04-09T12:10:50;95207.13;;;13.36;51.23
8059;BME280;4072;42.668;23.396;2023-04-09T12:13:20;95217.50;;;13.70;51.44
8059;BME280;4072;42.668;23.396;2023-04-09T12:15:48;95212.97;;;14.14;49.13
8059;BME280;4072;42.668;23.396;2023-04-09T12:18:20;95211.63;;;14.33;49.29
8059;BME280;4072;42.668;23.396;2023-04-09T12:20:49;95205.66;;;14.43;48.02
8059;BME280;4072;42.668;23.396;2023-04-09T12:23:17;95205.81;;;14.40;48.38
8059;BME280;4072;42.668;23.396;2023-04-09T12:25:45;95212.97;;;14.52;48.55
8059;BME280;4072;42.668;23.396;2023-04-09T12:28:14;95211.66;;;14.62;47.39
8059;BME280;4072;42.668;23.396;2023-04-09T12:30:44;95206.69;;;14.75;47.30
8059;BME280;4072;42.668;23.396;2023-04-09T12:33:14;95198.91;;;14.83;48.17
8059;BME280;4072;42.668;23.396;2023-04-09T12:35:43;95205.56;;;14.67;49.38
8059;BME280;4072;42.668;23.396;2023-04-09T12:38:13;95209.22;;;14.79;49.60
8059;BME280;4072;42.668;23.396;2023-04-09T12:40:41;95198.50;;;14.75;49.45
8059;BME280;4072;42.668;23.396;2023-04-09T12:43:09;95192.69;;;14.82;48.71
8059;BME280;4072;42.668;23.396;2023-04-09T12:45:37;95188.75;;;14.83;47.59
8059;BME280;4072;42.668;23.396;2023-04-09T12:48:06;95182.72;;;14.94;47.35
8059;BME280;4072;42.668;23.396;2023-04-09T12:50:35;95153.63;;;14.41;47.75
8059;BME280;4072;42.668;23.396;2023-04-09T12:53:03;95199.94;;;14.56;50.27
8059;BME280;4072;42.668;23.396;2023-04-09T12:55:33;95191.38;;;14.63;50.83
8059;BME280;4072;42.668;23.396;2023-04-09T12:58:05;95178.22;;;14.76;51.14
8059;BME280;4072;42.668;23.396;2023-04-09T13:00:33;95191.75;;;14.56;52.03
8059;BME280;4072;42.668;23.396;2023-04-09T13:03:02;95159.19;;;13.94;52.33
8059;BME280;4072;42.668;23.396;2023-04-09T13:05:30;95186.03;;;14.16;51.85
8059;BME280;4072;42.668;23.396;2023-04-09T13:08:01;95189.69;;;14.13;53.22
8059;BME280;4072;42.668;23.396;2023-04-09T13:10:29;95182.63;;;13.45;55.68
8059;BME280;4072;42.668;23.396;2023-04-09T13:12:59;95189.47;;;12.99;57.29
8059;BME280;4072;42.668;23.396;2023-04-09T13:15:27;95194.94;;;12.81;58.85
8059;BME280;4072;42.668;23.396;2023-04-09T13:17:55;95157.41;;;12.79;59.55
8059;BME280;4072;42.668;23.396;2023-04-09T13:20:23;95189.47;;;12.99;61.37
8059;BME280;4072;42.668;23.396;2023-04-09T13:22:51;95182.53;;;12.89;61.02
8059;BME280;4072;42.668;23.396;2023-04-09T13:25:19;95177.09;;;12.47;63.05